Time;durP1;ratioP1;P1;durP2;ratioP2;P2;SDS_P1;SDS_P2;PMS_P1;PMS_P2;Temp;Humidity;BMP_temperature;BMP_pressure;BME280_temperature;BME280_humidity;BME280_pressure;Samples;Min_cycle;Max_cycle;Signal;HPM_P1;HPM_P2
2021/05/15 00:01:05;;;;;;;5.53;3.17;;;;;;;10.06;75.87;100822.00;5113888;28;20044;-40
2021/05/15 00:03:31;;;;;;;6.43;3.60;;;;;;;10.05;75.84;100817.56;5111818;28;20503;-42
2021/05/15 00:05:57;;;;;;;6.20;2.97;;;;;;;10.05;75.83;100823.13;5113685;28;20122;-43
2021/05/15 00:08:23;;;;;;;7.00;3.70;;;;;;;10.03;75.89;100813.09;5113609;28;20047;-43
2021/05/15 00:10:51;;;;;;;4.25;3.05;;;;;;;10.02;75.92;100814.22;5112967;28;20741;-41
2021/05/15 00:13:19;;;;;;;6.43;3.45;;;;;;;10.02;75.76;100807.81;5113242;28;20177;-43
2021/05/15 00:15:45;;;;;;;4.57;3.03;;;;;;;10.01;75.81;100815.34;5113442;28;20035;-42
2021/05/15 00:18:12;;;;;;;5.10;3.03;;;;;;;10.01;75.59;100815.34;5112719;28;20061;-41
2021/05/15 00:20:38;;;;;;;4.80;2.75;;;;;;;10.00;75.50;100812.84;5113174;28;20051;-41
2021/05/15 00:23:04;;;;;;;5.78;2.90;;;;;;;9.98;75.56;100802.03;5113215;28;20100;-42
2021/05/15 00:25:31;;;;;;;5.72;2.90;;;;;;;10.01;75.48;100804.19;5112658;28;20047;-41
2021/05/15 00:27:58;;;;;;;5.03;3.08;;;;;;;10.01;75.42;100795.84;5112500;28;20051;-41
2021/05/15 00:30:25;;;;;;;4.95;3.25;;;;;;;10.02;75.24;100796.66;5113073;28;20046;-44
2021/05/15 00:32:51;;;;;;;4.97;3.38;;;;;;;9.99;75.37;100788.94;5112445;28;20047;-40
2021/05/15 00:35:18;;;;;;;5.22;2.53;;;;;;;9.97;75.28;100789.22;5112105;28;20051;-42
2021/05/15 00:37:44;;;;;;;8.00;3.30;;;;;;;9.97;75.31;100788.38;5112533;28;20071;-42
2021/05/15 00:40:13;;;;;;;6.40;3.03;;;;;;;9.97;75.33;100786.44;5112197;28;20047;-41
2021/05/15 00:42:40;;;;;;;7.60;3.63;;;;;;;9.96;75.36;100781.97;5112566;28;20054;-40
2021/05/15 00:45:08;;;;;;;5.40;3.45;;;;;;;9.95;75.42;100785.91;5112640;28;20044;-41
2021/05/15 00:47:35;;;;;;;4.85;3.30;;;;;;;9.94;75.45;100787.03;5112376;28;20194;-40
2021/05/15 00:50:03;;;;;;;4.68;2.90;;;;;;;9.94;75.45;100783.41;5112238;28;20046;-42
2021/05/15 00:52:34;;;;;;;6.45;3.28;;;;;;;9.91;75.11;100784.81;5111248;28;20058;-41
2021/05/15 00:55:01;;;;;;;3.60;2.47;;;;;;;9.87;75.11;100780.13;5111643;28;20408;-40
2021/05/15 00:57:28;;;;;;;4.25;2.65;;;;;;;9.87;75.31;100777.34;5112671;28;20047;-41
2021/05/15 00:59:54;;;;;;;4.90;2.60;;;;;;;9.89;75.07;100780.66;5111708;28;20520;-41
2021/05/15 01:02:20;;;;;;;6.30;3.30;;;;;;;9.90;75.06;100776.75;5112501;28;20048;-40
2021/05/15 01:04:47;;;;;;;5.75;3.10;;;;;;;9.92;75.06;100780.91;5112226;28;20039;-43
2021/05/15 01:07:13;;;;;;;8.63;3.35;;;;;;;9.91;75.06;100765.31;5111593;28;20055;-41
2021/05/15 01:09:40;;;;;;;4.85;3.55;;;;;;;9.93;74.98;100767.81;5111961;28;20059;-41
2021/05/15 01:12:08;;;;;;;5.40;2.70;;;;;;;9.93;75.26;100765.84;5112339;28;20136;-41
2021/05/15 01:14:35;;;;;;;4.90;2.80;;;;;;;9.93;75.22;100765.84;5111368;28;20051;-40
2021/05/15 01:17:02;;;;;;;4.50;3.15;;;;;;;9.93;75.22;100759.44;5112278;28;20479;-40
2021/05/15 01:19:28;;;;;;;5.60;3.00;;;;;;;9.92;75.20;100752.22;5111986;28;20048;-41
2021/05/15 01:21:55;;;;;;;3.97;2.60;;;;;;;9.92;75.02;100747.47;5111264;28;20444;-40
2021/05/15 01:24:22;;;;;;;3.40;2.38;;;;;;;9.91;75.32;100751.38;5112696;28;20396;-39
2021/05/15 01:26:48;;;;;;;5.88;3.08;;;;;;;9.91;75.39;100745.81;5112060;28;20046;-40
2021/05/15 01:29:15;;;;;;;5.15;3.05;;;;;;;9.91;75.35;100745.81;5111407;28;20071;-41
2021/05/15 01:31:41;;;;;;;5.18;3.03;;;;;;;9.90;75.24;100744.13;5110499;28;20055;-42
2021/05/15 01:34:07;;;;;;;4.30;2.63;;;;;;;9.90;75.30;100744.13;5112106;28;20519;-42
2021/05/15 01:36:39;;;;;;;4.47;3.22;;;;;;;9.90;75.43;100744.13;5110571;28;20116;-41
2021/05/15 01:39:07;;;;;;;6.47;3.20;;;;;;;9.88;75.33;100729.66;5112010;28;20058;-42
2021/05/15 01:41:34;;;;;;;5.90;2.80;;;;;;;9.88;75.34;100742.78;5111467;28;20263;-41
2021/05/15 01:44:00;;;;;;;4.50;2.90;;;;;;;9.89;75.29;100733.28;5111476;28;20052;-41
2021/05/15 01:46:26;;;;;;;6.22;2.95;;;;;;;9.88;75.04;100726.88;5111503;28;20051;-40
2021/05/15 01:48:52;;;;;;;3.90;2.90;;;;;;;9.88;75.07;100728.84;5109404;28;20491;-40
2021/05/15 01:51:18;;;;;;;3.28;2.33;;;;;;;9.88;75.15;100726.88;5110896;28;20055;-42
2021/05/15 01:53:48;;;;;;;5.55;2.97;;;;;;;9.91;75.15;100733.81;5111646;28;20389;-40
2021/05/15 01:56:17;;;;;;;6.15;3.17;;;;;;;9.91;75.23;100728.25;5110938;28;20036;-40
2021/05/15 01:58:44;;;;;;;4.45;2.92;;;;;;;9.90;74.98;100733.00;5111419;28;20085;-41
2021/05/15 02:01:10;;;;;;;7.35;3.08;;;;;;;9.89;74.89;100727.72;5111363;28;20043;-40
2021/05/15 02:03:39;;;;;;;4.85;2.53;;;;;;;9.89;74.80;100722.13;5110477;28;20042;-40
2021/05/15 02:06:06;;;;;;;5.47;2.97;;;;;;;9.89;74.92;100725.75;5111411;28;20044;-41
2021/05/15 02:08:32;;;;;;;3.60;2.30;;;;;;;9.89;74.79;100725.75;5111537;28;20091;-42
2021/05/15 02:10:59;;;;;;;4.78;2.80;;;;;;;9.89;74.83;100725.75;5111117;28;20070;-41
2021/05/15 02:13:27;;;;;;;4.18;2.65;;;;;;;9.89;74.88;100728.53;5111339;28;20063;-41
2021/05/15 02:15:55;;;;;;;4.82;2.60;;;;;;;9.88;74.86;100724.09;5111035;28;20040;-42
2021/05/15 02:18:22;;;;;;;5.55;3.30;;;;;;;9.86;74.86;100731.09;5110362;28;20048;-42
2021/05/15 02:20:48;;;;;;;5.13;2.65;;;;;;;9.84;74.47;100723.03;5111379;28;20047;-41
2021/05/15 02:23:15;;;;;;;4.97;3.22;;;;;;;9.83;74.57;100721.38;5111027;28;20511;-41
2021/05/15 02:25:42;;;;;;;5.40;2.65;;;;;;;9.84;74.66;100717.44;5110988;28;20043;-41
2021/05/15 02:28:09;;;;;;;5.55;2.90;;;;;;;9.84;74.77;100716.63;5110938;28;20043;-41
2021/05/15 02:30:36;;;;;;;4.18;2.78;;;;;;;9.84;74.92;100716.63;5111205;28;20044;-44
2021/05/15 02:33:04;;;;;;;4.45;2.42;;;;;;;9.84;74.92;100723.03;5110216;28;20453;-42
2021/05/15 02:35:30;;;;;;;3.80;2.70;;;;;;;9.84;75.05;100717.44;5108484;28;20052;-40
2021/05/15 02:37:57;;;;;;;5.47;3.55;;;;;;;9.84;75.01;100717.44;5111011;28;20055;-41
2021/05/15 02:40:24;;;;;;;8.18;4.30;;;;;;;9.83;74.86;100713.00;5110495;28;20078;-43
2021/05/15 02:42:51;;;;;;;7.85;3.75;;;;;;;9.82;74.86;100718.88;5109771;28;20051;-40
2021/05/15 02:45:19;;;;;;;4.68;2.70;;;;;;;9.78;75.05;100710.31;5110342;28;20461;-44
2021/05/15 02:47:46;;;;;;;5.63;3.42;;;;;;;9.76;75.18;100708.94;5111197;28;20040;-42
2021/05/15 02:50:14;;;;;;;6.47;3.60;;;;;;;9.74;75.17;100709.25;5110746;28;20043;-41
2021/05/15 02:52:40;;;;;;;6.85;2.97;;;;;;;9.74;75.31;100703.66;5110374;28;20481;-41
2021/05/15 02:55:09;;;;;;;5.97;3.75;;;;;;;9.73;75.50;100702.00;5111005;28;20100;-41
2021/05/15 02:57:36;;;;;;;5.43;3.05;;;;;;;9.72;75.67;100697.56;5110541;28;20044;-40
2021/05/15 03:00:04;;;;;;;5.40;3.75;;;;;;;9.72;75.79;100694.75;5112608;28;20076;-40
2021/05/15 03:02:30;;;;;;;6.93;3.75;;;;;;;9.72;75.96;100689.19;5114768;28;20097;-42
2021/05/15 03:04:57;;;;;;;4.38;3.05;;;;;;;9.73;76.16;100681.66;5114607;28;20043;-43
2021/05/15 03:07:23;;;;;;;6.38;4.28;;;;;;;9.72;76.09;100678.03;5114207;28;20052;-42
2021/05/15 03:09:50;;;;;;;6.00;3.80;;;;;;;9.72;76.42;100680.00;5114597;28;20540;-41
2021/05/15 03:12:16;;;;;;;7.55;3.95;;;;;;;9.72;76.48;100675.25;5114715;28;20048;-41
2021/05/15 03:14:43;;;;;;;6.82;3.90;;;;;;;9.71;76.86;100667.19;5113687;28;20670;-43
2021/05/15 03:17:10;;;;;;;7.07;3.80;;;;;;;9.71;77.13;100675.56;5114637;28;20051;-45
2021/05/15 03:19:36;;;;;;;5.05;3.00;;;;;;;9.68;77.29;100663.06;5114311;28;20065;-44
2021/05/15 03:22:03;;;;;;;7.28;4.47;;;;;;;9.68;77.46;100668.63;5113977;28;20051;-44
2021/05/15 03:24:30;;;;;;;6.30;4.65;;;;;;;9.65;77.71;100664.47;5114485;28;20047;-44
2021/05/15 03:26:56;;;;;;;8.55;4.30;;;;;;;9.63;78.07;100660.31;5114112;28;20043;-41
2021/05/15 03:29:22;;;;;;;6.78;4.28;;;;;;;9.62;78.40;100658.66;5113684;28;20039;-41
2021/05/15 03:31:48;;;;;;;7.18;4.05;;;;;;;9.59;78.75;100667.63;5113297;28;20051;-44
2021/05/15 03:34:15;;;;;;;6.90;4.07;;;;;;;9.56;78.87;100663.50;5114173;28;20052;-48
2021/05/15 03:36:41;;;;;;;6.28;4.70;;;;;;;9.55;79.09;100663.78;5113743;28;20044;-51
2021/05/15 03:39:08;;;;;;;6.80;5.25;;;;;;;9.51;79.42;100657.97;5112743;28;20081;-43
2021/05/15 03:41:34;;;;;;;6.90;4.85;;;;;;;9.51;79.77;100652.41;5113417;28;20047;-43
2021/05/15 03:44:00;;;;;;;5.85;3.63;;;;;;;9.48;79.94;100646.59;5114035;28;20591;-41
2021/05/15 03:46:27;;;;;;;8.32;4.80;;;;;;;9.46;79.94;100657.19;5113929;28;20036;-44
2021/05/15 03:48:53;;;;;;;5.30;3.33;;;;;;;9.45;79.93;100649.97;5113428;28;20535;-42
2021/05/15 03:51:19;;;;;;;6.82;4.88;;;;;;;9.44;80.06;100653.88;5113795;28;20104;-43
2021/05/15 03:53:45;;;;;;;10.15;6.00;;;;;;;9.43;80.07;100652.22;5113817;28;20035;-43
2021/05/15 03:56:12;;;;;;;7.22;4.40;;;;;;;9.43;80.54;100643.84;5112802;28;20055;-43
2021/05/15 03:58:38;;;;;;;6.95;5.45;;;;;;;9.41;80.56;100646.09;5113853;28;20397;-44
2021/05/15 04:01:04;;;;;;;6.28;4.10;;;;;;;9.41;80.85;100646.09;5112193;28;20051;-44
2021/05/15 04:03:31;;;;;;;6.90;4.20;;;;;;;9.40;81.03;100644.44;5113225;28;20044;-45
2021/05/15 04:05:57;;;;;;;7.43;4.97;;;;;;;9.41;81.23;100643.31;5113167;28;20056;-44
2021/05/15 04:08:23;;;;;;;9.32;5.60;;;;;;;9.39;81.27;100637.25;5113392;28;20093;-43
2021/05/15 04:10:50;;;;;;;7.65;5.55;;;;;;;9.36;81.32;100635.06;5111675;28;20047;-44
2021/05/15 04:13:21;;;;;;;7.13;4.95;;;;;;;9.33;81.35;100639.25;5113283;28;20404;-47
2021/05/15 04:15:51;;;;;;;7.05;4.50;;;;;;;9.32;81.71;100637.59;5104011;28;20036;-45
2021/05/15 04:18:17;;;;;;;6.32;4.25;;;;;;;9.32;81.82;100638.44;5112384;28;20512;-45
2021/05/15 04:20:45;;;;;;;10.75;6.57;;;;;;;9.31;81.73;100639.53;5112988;28;20453;-41
2021/05/15 04:23:13;;;;;;;7.38;4.32;;;;;;;9.31;82.13;100635.94;5112876;28;20485;-44
2021/05/15 04:25:39;;;;;;;7.97;5.03;;;;;;;9.32;82.21;100632.03;5112527;28;20077;-44
2021/05/15 04:28:07;;;;;;;6.90;4.60;;;;;;;9.33;82.23;100633.69;5113050;28;20408;-47
2021/05/15 04:30:34;;;;;;;7.15;5.40;;;;;;;9.31;82.16;100625.63;5112859;28;21475;-44
2021/05/15 04:33:01;;;;;;;6.47;4.40;;;;;;;9.31;82.17;100627.59;5112350;28;20093;-44
2021/05/15 04:35:32;;;;;;;7.75;6.00;;;;;;;9.31;82.30;100624.78;5112766;28;20134;-42
2021/05/15 04:37:58;;;;;;;6.72;4.60;;;;;;;9.28;82.22;100622.59;5112022;28;20126;-46
2021/05/15 04:40:24;;;;;;;8.05;5.55;;;;;;;9.26;82.21;100617.31;5112906;28;20059;-43
2021/05/15 04:42:50;;;;;;;7.13;4.43;;;;;;;9.22;82.38;100616.25;5111547;28;20046;-42
2021/05/15 04:45:17;;;;;;;7.32;4.88;;;;;;;9.21;82.47;100622.94;5112258;28;20105;-44
2021/05/15 04:47:44;;;;;;;9.10;5.40;;;;;;;9.20;82.76;100618.50;5112359;28;20055;-46
2021/05/15 04:50:11;;;;;;;5.75;4.82;;;;;;;9.21;82.62;100619.31;5112876;28;20035;-42
2021/05/15 04:52:38;;;;;;;6.82;5.43;;;;;;;9.21;82.81;100619.31;5111856;28;20392;-43
2021/05/15 04:55:05;;;;;;;9.75;5.22;;;;;;;9.20;82.73;100621.28;5112649;28;20070;-44
2021/05/15 04:57:32;;;;;;;7.88;4.70;;;;;;;9.18;82.90;100625.50;5112292;28;20040;-46
2021/05/15 04:59:58;;;;;;;8.70;6.45;;;;;;;9.17;82.63;100627.47;5111770;28;20058;-45
2021/05/15 05:02:24;;;;;;;7.53;5.53;;;;;;;9.16;82.85;100624.97;5112440;28;20043;-44
2021/05/15 05:04:51;;;;;;;6.95;4.65;;;;;;;9.12;82.71;100627.53;5112155;28;20500;-43
2021/05/15 05:07:18;;;;;;;6.50;4.65;;;;;;;9.11;82.84;100620.28;5111517;28;20074;-41
2021/05/15 05:09:44;;;;;;;6.38;3.60;;;;;;;9.08;82.83;100623.66;5112244;28;20050;-43
2021/05/15 05:12:11;;;;;;;8.32;6.10;;;;;;;9.07;82.80;100619.22;5112245;28;20052;-45
2021/05/15 05:14:38;;;;;;;6.07;4.40;;;;;;;9.09;83.02;100624.50;5111542;28;20127;-45
2021/05/15 05:17:04;;;;;;;10.18;5.53;;;;;;;9.10;82.94;100626.97;5112052;28;20063;-48
2021/05/15 05:19:30;;;;;;;8.00;5.13;;;;;;;9.09;82.86;100625.31;5111763;28;20040;-45
2021/05/15 05:22:00;;;;;;;7.70;5.10;;;;;;;9.09;82.86;100630.06;5111144;28;20051;-47
2021/05/15 05:24:26;;;;;;;8.20;5.07;;;;;;;9.10;82.90;100617.81;5103309;28;20046;-47
2021/05/15 05:26:52;;;;;;;9.35;4.03;;;;;;;9.06;82.64;100628.69;5107970;28;20050;-46
2021/05/15 05:29:18;;;;;;;6.35;4.28;;;;;;;9.03;82.81;100623.72;5110242;28;20538;-49
2021/05/15 05:31:45;;;;;;;7.50;4.32;;;;;;;9.01;83.17;100625.94;5111796;28;20047;-44
2021/05/15 05:34:12;;;;;;;7.00;4.43;;;;;;;9.02;83.11;100632.34;5110738;28;20047;-46
2021/05/15 05:36:38;;;;;;;12.75;5.30;;;;;;;8.99;83.25;100625.44;5111510;28;20090;-49
2021/05/15 05:39:11;;;;;;;4.90;3.30;;;;;;;8.95;83.22;100621.59;5111129;28;20059;-45
2021/05/15 05:41:37;;;;;;;7.05;3.55;;;;;;;8.91;83.44;100626.91;5109239;28;20040;-45
2021/05/15 05:44:04;;;;;;;6.20;3.00;;;;;;;8.92;83.72;100628.56;5110855;28;20078;-44
2021/05/15 05:46:30;;;;;;;8.82;4.93;;;;;;;8.95;83.95;100621.59;5108575;28;20516;-45
2021/05/15 05:48:57;;;;;;;7.28;4.75;;;;;;;8.92;83.67;100623.00;5110990;28;20055;-44
2021/05/15 05:51:23;;;;;;;6.40;3.65;;;;;;;8.87;83.78;100622.22;5111732;28;20049;-45
2021/05/15 05:53:50;;;;;;;8.70;4.38;;;;;;;8.82;84.08;100611.97;5111599;28;20079;-46
2021/05/15 05:56:17;;;;;;;5.78;4.00;;;;;;;8.80;84.53;100613.38;5110959;28;20067;-42
2021/05/15 05:58:45;;;;;;;6.47;3.65;;;;;;;8.81;84.58;100610.28;5111294;28;20078;-43
2021/05/15 06:01:12;;;;;;;6.07;3.55;;;;;;;8.84;84.82;100608.88;5110999;28;20458;-44
2021/05/15 06:03:38;;;;;;;8.02;4.28;;;;;;;8.85;84.65;100608.59;5106331;28;20073;-45
2021/05/15 06:06:05;;;;;;;6.95;4.25;;;;;;;8.86;84.72;100606.63;5109650;28;20092;-42
2021/05/15 06:08:31;;;;;;;5.38;3.40;;;;;;;8.84;84.75;100606.09;5105678;28;20054;-43
2021/05/15 06:10:58;;;;;;;7.97;4.47;;;;;;;8.86;85.08;100603.84;5108717;28;20071;-47
2021/05/15 06:13:26;;;;;;;5.38;3.85;;;;;;;8.88;85.23;100598.84;5109648;28;20501;-48
2021/05/15 06:15:52;;;;;;;6.80;4.38;;;;;;;8.90;85.42;100591.84;5108932;28;20093;-43
2021/05/15 06:18:19;;;;;;;7.50;3.83;;;;;;;8.92;85.56;100597.13;5109484;28;20480;-46
2021/05/15 06:20:46;;;;;;;5.18;3.25;;;;;;;8.96;85.63;100601.81;5109655;28;20063;-43
2021/05/15 06:23:12;;;;;;;5.65;3.22;;;;;;;8.98;85.62;100605.13;5109386;28;20569;-44
2021/05/15 06:25:38;;;;;;;4.78;3.15;;;;;;;9.00;85.46;100602.03;5107627;28;20484;-45
2021/05/15 06:28:05;;;;;;;5.03;3.45;;;;;;;9.02;85.28;100593.38;5109212;28;20051;-45
2021/05/15 06:30:32;;;;;;;7.35;3.88;;;;;;;9.04;85.37;100603.09;5104583;28;20047;-45
2021/05/15 06:32:58;;;;;;;5.95;3.95;;;;;;;9.06;85.59;100597.25;5109597;28;20051;-47
2021/05/15 06:35:25;;;;;;;7.10;3.78;;;;;;;9.07;85.52;100605.31;5112475;28;20059;-47
2021/05/15 06:37:51;;;;;;;6.55;3.75;;;;;;;9.08;85.69;100595.81;5112996;28;20127;-50
2021/05/15 06:40:17;;;;;;;6.75;3.70;;;;;;;9.10;85.73;100596.38;5113283;28;20039;-48
2021/05/15 06:42:43;;;;;;;9.27;4.60;;;;;;;9.08;85.67;100595.81;5113594;28;20043;-49
2021/05/15 06:45:11;;;;;;;10.93;5.13;;;;;;;9.06;85.66;100597.25;5110991;28;20047;-48
2021/05/15 06:47:38;;;;;;;8.77;4.50;;;;;;;9.04;85.76;100591.97;5113658;28;20039;-43
2021/05/15 06:50:06;;;;;;;8.77;5.18;;;;;;;9.06;85.71;100598.06;5113055;28;20062;-44
2021/05/15 06:52:33;;;;;;;7.78;4.28;;;;;;;9.06;85.90;100586.09;5111305;28;20092;-45
2021/05/15 06:55:00;;;;;;;9.65;5.32;;;;;;;9.09;85.86;100588.31;5113017;28;20074;-42
2021/05/15 06:57:26;;;;;;;10.15;4.53;;;;;;;9.09;86.11;100586.34;5113213;28;20097;-43
2021/05/15 06:59:52;;;;;;;6.70;4.82;;;;;;;9.10;86.06;100595.53;5112558;28;20498;-43
2021/05/15 07:02:18;;;;;;;9.80;5.28;;;;;;;9.11;86.02;100589.66;5113166;28;20075;-47
2021/05/15 07:04:45;;;;;;;8.73;5.35;;;;;;;9.12;85.81;100599.69;5112454;28;20047;-45
2021/05/15 07:07:12;;;;;;;9.07;4.90;;;;;;;9.11;86.03;100591.63;5112028;28;20056;-43
2021/05/15 07:09:38;;;;;;;9.98;4.90;;;;;;;9.08;85.87;100586.66;5111349;28;20417;-45
2021/05/15 07:12:05;;;;;;;7.93;4.70;;;;;;;9.07;85.94;100580.25;5112701;28;20051;-46
2021/05/15 07:14:31;;;;;;;7.90;4.72;;;;;;;9.08;85.98;100576.34;5110556;28;20067;-49
2021/05/15 07:16:57;;;;;;;7.20;4.70;;;;;;;9.10;86.02;100574.09;5112957;28;20085;-45
2021/05/15 07:19:23;;;;;;;9.45;3.90;;;;;;;9.13;86.26;100567.94;5113267;28;20044;-45
2021/05/15 07:21:50;;;;;;;7.35;4.72;;;;;;;9.17;86.14;100573.75;5112056;28;20135;-47
2021/05/15 07:24:17;;;;;;;6.55;4.00;;;;;;;9.20;86.11;100571.16;5112619;28;20079;-44
2021/05/15 07:26:43;;;;;;;7.13;4.15;;;;;;;9.22;86.02;100568.09;5111577;28;20040;-45
2021/05/15 07:29:09;;;;;;;7.15;4.85;;;;;;;9.23;85.67;100569.75;5110771;28;20044;-44
2021/05/15 07:31:35;;;;;;;10.00;4.60;;;;;;;9.26;85.79;100560.81;5111350;28;20047;-45
2021/05/15 07:34:01;;;;;;;10.13;4.78;;;;;;;9.29;85.79;100563.00;5110949;28;20081;-46
2021/05/15 07:36:28;;;;;;;8.13;4.10;;;;;;;9.28;85.51;100567.75;5112248;28;20047;-48
2021/05/15 07:38:55;;;;;;;11.93;5.03;;;;;;;9.28;85.71;100566.91;5111789;28;20130;-48
2021/05/15 07:41:22;;;;;;;5.72;3.60;;;;;;;9.27;85.46;100563.31;5111877;28;20404;-49
2021/05/15 07:43:48;;;;;;;8.75;4.68;;;;;;;9.27;85.53;100563.31;5110921;28;20047;-47
2021/05/15 07:46:16;;;;;;;8.70;4.97;;;;;;;9.28;85.27;100558.56;5110814;28;20100;-48
2021/05/15 07:48:43;;;;;;;7.78;5.00;;;;;;;9.29;85.47;100558.25;5110823;28;20180;-48
2021/05/15 07:51:11;;;;;;;9.30;5.40;;;;;;;9.29;85.39;100554.66;5108694;28;20080;-46
2021/05/15 07:53:38;;;;;;;9.38;5.50;;;;;;;9.28;85.41;100553.81;5111926;28;20048;-44
2021/05/15 07:56:06;;;;;;;9.13;4.97;;;;;;;9.28;85.21;100562.19;5110901;28;20516;-43
2021/05/15 07:58:32;;;;;;;8.32;5.63;;;;;;;9.28;85.48;100553.00;5107955;28;20071;-47
2021/05/15 08:00:59;;;;;;;8.88;4.80;;;;;;;9.25;85.31;100559.97;5111787;28;20043;-46
2021/05/15 08:03:26;;;;;;;9.35;4.80;;;;;;;9.24;85.54;100563.06;5110227;28;20450;-44
2021/05/15 08:05:52;;;;;;;7.20;4.95;;;;;;;9.26;85.62;100553.28;5111554;28;20047;-46
2021/05/15 08:08:18;;;;;;;7.72;3.83;;;;;;;9.31;85.56;100547.66;5111457;28;20096;-47
2021/05/15 08:10:44;;;;;;;7.40;4.72;;;;;;;9.35;85.73;100550.69;5111360;28;20052;-45
2021/05/15 08:13:11;;;;;;;6.85;4.60;;;;;;;9.41;85.58;100552.25;5111630;28;20039;-45
2021/05/15 08:15:39;;;;;;;7.68;3.90;;;;;;;9.44;85.21;100556.41;5111641;28;20400;-43
2021/05/15 08:18:05;;;;;;;7.63;4.43;;;;;;;9.44;85.27;100550.81;5110916;28;20412;-45
2021/05/15 08:20:32;;;;;;;7.65;4.47;;;;;;;9.45;85.16;100555.28;5110456;28;20074;-46
2021/05/15 08:22:59;;;;;;;6.68;4.50;;;;;;;9.45;85.14;100556.09;5110792;28;20070;-46
2021/05/15 08:25:25;;;;;;;8.43;5.22;;;;;;;9.45;85.04;100553.31;5110515;28;20130;-44
2021/05/15 08:27:54;;;;;;;7.20;4.50;;;;;;;9.46;85.15;100551.38;5111462;28;20050;-48
2021/05/15 08:30:23;;;;;;;7.32;4.43;;;;;;;9.47;84.75;100548.28;5110522;28;20123;-49
2021/05/15 08:32:51;;;;;;;7.47;4.13;;;;;;;9.44;84.77;100551.66;5111531;28;20052;-45
2021/05/15 08:35:17;;;;;;;7.40;5.30;;;;;;;9.48;85.01;100543.53;5110825;28;20043;-47
2021/05/15 08:37:44;;;;;;;10.10;5.38;;;;;;;9.52;85.08;100541.81;5110743;28;20067;-48
2021/05/15 08:40:12;;;;;;;8.18;5.10;;;;;;;9.53;85.02;100537.91;5110966;28;20105;-42
2021/05/15 08:42:40;;;;;;;9.30;6.82;;;;;;;9.55;85.19;100527.28;5111020;28;20051;-45
2021/05/15 08:45:09;;;;;;;9.35;6.18;;;;;;;9.55;85.33;100535.66;5110254;28;20039;-44
2021/05/15 08:47:37;;;;;;;8.80;5.97;;;;;;;9.53;85.18;100530.38;5110876;28;20050;-45
2021/05/15 08:50:07;;;;;;;7.82;5.65;;;;;;;9.48;85.20;100526.81;5106743;28;20040;-51
2021/05/15 08:52:37;;;;;;;8.45;4.80;;;;;;;9.43;85.40;100521.31;5106838;28;20162;-46
2021/05/15 08:55:04;;;;;;;8.13;4.85;;;;;;;9.39;85.35;100525.84;5106620;28;20031;-44
2021/05/15 08:57:31;;;;;;;5.40;4.20;;;;;;;9.40;85.73;100524.69;5110344;28;20549;-45
2021/05/15 08:59:57;;;;;;;8.02;4.55;;;;;;;9.42;85.78;100522.44;5109583;28;20040;-45
2021/05/15 09:02:23;;;;;;;4.97;3.72;;;;;;;9.44;85.69;100522.97;5110581;28;20054;-47
2021/05/15 09:05:11;;;;;;;6.13;4.05;;;;;;;9.44;85.98;100514.63;5108024;28;20059;-47
2021/05/15 09:07:39;;;;;;;7.50;4.38;;;;;;;9.47;86.01;100514.03;5109454;28;20446;-46
2021/05/15 09:10:08;;;;;;;6.05;4.43;;;;;;;9.49;85.97;100518.19;5109344;28;20492;-46
2021/05/15 09:12:35;;;;;;;6.13;4.30;;;;;;;9.52;86.24;100514.78;5109680;28;20074;-45
2021/05/15 09:15:05;;;;;;;8.48;4.47;;;;;;;9.58;86.36;100518.34;5105601;28;20085;-46
2021/05/15 09:17:42;;;;;;;9.40;4.93;;;;;;;9.65;86.53;100518.78;5110692;28;20554;-43
2021/05/15 09:20:21;;;;;;;6.47;5.22;;;;;;;9.67;86.29;100510.94;5106846;28;20919;-47
2021/05/15 09:22:48;;;;;;;6.07;4.70;;;;;;;9.70;86.58;100521.50;5108636;28;20112;-49
2021/05/15 09:25:16;;;;;;;5.78;5.03;;;;;;;9.75;86.47;100515.84;5110207;28;20446;-47
2021/05/15 09:27:44;;;;;;;6.85;5.13;;;;;;;9.77;86.58;100515.53;5109441;28;20048;-45
2021/05/15 09:30:13;;;;;;;5.85;4.25;;;;;;;9.79;86.28;100519.66;5110022;28;20067;-45
2021/05/15 09:32:40;;;;;;;5.70;4.40;;;;;;;9.80;86.24;100518.53;5106056;28;20454;-46
2021/05/15 09:35:09;;;;;;;5.22;4.13;;;;;;;9.82;86.25;100515.44;5109407;28;20052;-45
2021/05/15 09:37:41;;;;;;;4.75;3.47;;;;;;;9.80;86.09;100520.50;5109876;28;20454;-46
2021/05/15 09:40:14;;;;;;;3.97;2.90;;;;;;;9.86;86.44;100508.97;5109828;28;20476;-48
2021/05/15 09:42:52;;;;;;;5.90;4.25;;;;;;;9.94;86.37;100507.47;5108722;28;20101;-47
2021/05/15 09:45:22;;;;;;;5.88;3.88;;;;;;;10.02;86.08;100507.59;5110245;28;20046;-48
2021/05/15 09:47:54;;;;;;;5.47;3.90;;;;;;;10.13;86.02;100507.44;5109256;28;20044;-46
2021/05/15 09:50:24;;;;;;;5.38;4.25;;;;;;;10.26;86.15;100507.50;5109985;28;20573;-46
2021/05/15 09:53:04;;;;;;;6.90;5.00;;;;;;;10.46;86.15;100494.31;5109842;28;20055;-48
2021/05/15 09:55:32;;;;;;;6.82;4.22;;;;;;;10.60;85.93;100495.16;5107665;28;20039;-48
2021/05/15 09:57:59;;;;;;;6.45;4.63;;;;;;;10.78;85.72;100496.22;5109308;28;20044;-45
2021/05/15 10:00:39;;;;;;;7.45;4.40;;;;;;;11.00;85.81;100499.91;5109913;28;20508;-46
2021/05/15 10:03:16;;;;;;;7.18;4.28;;;;;;;11.26;85.28;100491.00;5105976;28;20032;-50
2021/05/15 10:05:44;;;;;;;5.53;4.13;;;;;;;11.62;84.94;100482.63;5107692;28;20044;-47
2021/05/15 10:08:12;;;;;;;6.38;4.30;;;;;;;11.82;83.58;100470.16;5108972;28;20092;-47
2021/05/15 10:10:39;;;;;;;5.45;4.00;;;;;;;12.04;83.20;100465.41;5106671;28;20047;-48
2021/05/15 10:13:07;;;;;;;7.18;4.80;;;;;;;12.26;82.84;100463.72;5109207;28;20036;-48
2021/05/15 10:15:34;;;;;;;6.13;4.07;;;;;;;12.53;82.12;100460.75;5108975;28;20047;-44
2021/05/15 10:18:03;;;;;;;6.78;4.53;;;;;;;12.73;80.84;100460.19;5105271;28;20048;-46
2021/05/15 10:20:31;;;;;;;5.22;4.00;;;;;;;12.88;80.55;100463.69;5106761;28;20035;-47
2021/05/15 10:22:59;;;;;;;5.78;3.88;;;;;;;13.14;79.65;100466.56;5109006;28;20058;-47
2021/05/15 10:25:29;;;;;;;5.40;3.90;;;;;;;13.41;78.90;100461.53;5109685;28;20043;-51
2021/05/15 10:28:02;;;;;;;4.35;3.53;;;;;;;13.52;77.11;100462.06;5109046;28;20557;-48
2021/05/15 10:30:30;;;;;;;4.38;3.10;;;;;;;13.35;76.40;100460.06;5109167;28;20040;-48
2021/05/15 10:33:01;;;;;;;4.45;3.00;;;;;;;13.23;76.67;100454.25;5109049;28;20039;-48
2021/05/15 10:35:30;;;;;;;4.60;2.88;;;;;;;13.19;75.94;100450.44;5109406;28;20052;-45
2021/05/15 10:38:06;;;;;;;5.97;3.38;;;;;;;13.08;75.91;100449.91;5107152;28;20044;-47
2021/05/15 10:40:51;;;;;;;4.97;3.30;;;;;;;13.13;75.98;100453.72;5105391;28;20040;-45
2021/05/15 10:43:31;;;;;;;6.65;3.75;;;;;;;13.16;75.75;100441.91;5107481;28;20043;-46
2021/05/15 10:45:59;;;;;;;4.47;3.25;;;;;;;13.13;75.47;100443.34;5109016;28;20048;-47
2021/05/15 10:48:28;;;;;;;6.40;4.05;;;;;;;13.06;75.60;100440.19;5109198;28;20401;-46
2021/05/15 10:50:57;;;;;;;6.55;4.35;;;;;;;13.17;75.98;100443.53;5108243;28;20044;-45
2021/05/15 10:53:26;;;;;;;5.18;4.13;;;;;;;13.33;76.04;100442.75;5109223;28;20039;-46
2021/05/15 10:56:11;;;;;;;5.88;3.90;;;;;;;13.43;75.10;100439.59;5107611;28;20077;-45
2021/05/15 10:58:44;;;;;;;5.55;3.58;;;;;;;13.41;74.82;100438.28;5105148;28;20051;-46
2021/05/15 11:01:14;;;;;;;4.60;3.70;;;;;;;13.31;74.69;100428.22;5108808;28;20134;-47
2021/05/15 11:03:45;;;;;;;5.15;3.75;;;;;;;13.14;74.90;100419.78;5109256;28;20104;-46
2021/05/15 11:06:21;;;;;;;6.30;4.22;;;;;;;13.04;75.01;100431.28;5105959;28;20104;-45
2021/05/15 11:08:58;;;;;;;6.85;4.32;;;;;;;12.98;75.16;100427.00;5108528;28;20039;-44
2021/05/15 11:11:37;;;;;;;6.47;4.05;;;;;;;12.94;74.87;100418.41;5108334;28;20043;-47
2021/05/15 11:14:24;;;;;;;6.07;3.85;;;;;;;12.76;74.47;100423.16;5105023;28;20046;-47
2021/05/15 11:17:15;;;;;;;7.95;4.80;;;;;;;12.70;75.33;100418.84;5108877;28;20040;-47
2021/05/15 11:19:49;;;;;;;5.60;3.88;;;;;;;12.68;75.89;100417.50;5107494;28;20172;-44
2021/05/15 11:22:17;;;;;;;7.78;4.38;;;;;;;12.68;75.81;100409.94;5112860;28;20047;-43
2021/05/15 11:24:53;;;;;;;5.63;3.95;;;;;;;12.66;76.05;100412.22;5112859;28;20044;-45
2021/05/15 11:27:22;;;;;;;7.00;4.40;;;;;;;12.67;75.90;100401.84;5111114;28;20048;-44
2021/05/15 11:30:05;;;;;;;7.32;4.85;;;;;;;12.66;75.64;100405.81;5112300;28;20492;-48
2021/05/15 11:32:33;;;;;;;6.35;4.78;;;;;;;12.66;75.90;100395.44;5107965;28;20044;-43
2021/05/15 11:35:03;;;;;;;6.38;3.88;;;;;;;12.69;75.73;100394.78;5111385;28;20086;-47